Time;durP1;ratioP1;P1;durP2;ratioP2;P2;SDS_P1;SDS_P2;PMS_P1;PMS_P2;Temp;Humidity;BMP_temperature;BMP_pressure;BME280_temperature;BME280_humidity;BME280_pressure;Samples;Min_cycle;Max_cycle;Signal;HPM_P1;HPM_P2
2024/01/13 00:02:04;;;;;;;7.40;3.73;;;-16.80;77.60;;;;;;5031647;28;20030;-82
2024/01/13 00:04:29;;;;;;;13.40;3.40;;;-16.90;77.80;;;;;;5032136;28;20045;-80
2024/01/13 00:06:55;;;;;;;7.40;4.80;;;-16.80;77.50;;;;;;5033231;28;20029;-80
2024/01/13 00:09:21;;;;;;;6.73;3.93;;;-16.90;77.40;;;;;;5032695;28;20045;-81
2024/01/13 00:11:47;;;;;;;5.20;2.83;;;-16.90;77.50;;;;;;5035551;28;20324;-80
2024/01/13 00:14:13;;;;;;;5.73;3.23;;;-17.00;77.70;;;;;;5035785;28;20109;-82
2024/01/13 00:16:39;;;;;;;12.77;5.00;;;-17.00;78.10;;;;;;5030879;28;20029;-82
2024/01/13 00:19:05;;;;;;;10.27;3.42;;;-17.00;78.40;;;;;;5016632;28;20030;-81
2024/01/13 00:21:31;;;;;;;7.38;3.03;;;-17.10;78.40;;;;;;5036058;28;20515;-86
2024/01/13 00:23:57;;;;;;;7.13;2.93;;;-17.00;78.80;;;;;;5019604;28;20033;-86
2024/01/13 00:26:23;;;;;;;11.63;4.22;;;-17.00;79.20;;;;;;5021028;28;20743;-85
2024/01/13 00:28:49;;;;;;;7.40;3.67;;;-17.00;79.40;;;;;;5037644;28;20079;-87
2024/01/13 00:31:15;;;;;;;10.23;3.83;;;-17.00;79.50;;;;;;5040559;28;20490;-83
2024/01/13 00:33:43;;;;;;;9.60;4.10;;;-17.00;79.80;;;;;;5036016;28;20060;-82
2024/01/13 00:36:10;;;;;;;6.43;3.72;;;-16.90;79.90;;;;;;5035260;28;20018;-81
2024/01/13 00:38:36;;;;;;;9.77;3.40;;;-16.90;79.80;;;;;;5035193;28;20127;-81
2024/01/13 00:41:05;;;;;;;12.00;3.03;;;-16.90;79.40;;;;;;5020962;28;20037;-85
2024/01/13 00:43:31;;;;;;;9.30;3.10;;;-16.90;79.00;;;;;;5042824;28;20041;-85
2024/01/13 00:45:57;;;;;;;4.60;2.90;;;-16.90;78.90;;;;;;5042749;28;20057;-83
2024/01/13 00:48:23;;;;;;;6.87;2.50;;;-17.00;79.40;;;;;;5019382;28;20047;-82
2024/01/13 00:50:49;;;;;;;6.77;4.50;;;-17.00;78.60;;;;;;5016671;28;20467;-83
2024/01/13 00:53:15;;;;;;;9.33;4.33;;;-17.00;78.40;;;;;;5035258;28;20072;-84
2024/01/13 00:55:41;;;;;;;3.65;2.92;;;-17.00;78.10;;;;;;5035433;28;20018;-84
2024/01/13 00:58:06;;;;;;;11.57;4.33;;;-17.10;77.80;;;;;;5038791;28;20111;-83
2024/01/13 01:00:32;;;;;;;8.38;3.38;;;-17.10;78.30;;;;;;5046057;28;20025;-83
2024/01/13 01:02:58;;;;;;;11.10;3.87;;;-17.10;78.60;;;;;;5020241;28;20025;-82
2024/01/13 01:05:24;;;;;;;4.77;3.90;;;-17.10;78.80;;;;;;5017320;28;20033;-82
2024/01/13 01:07:50;;;;;;;10.97;5.53;;;-17.10;78.70;;;;;;5034841;28;20056;-84
2024/01/13 01:10:16;;;;;;;5.20;2.40;;;-17.10;78.90;;;;;;5017571;28;20175;-84
2024/01/13 01:12:41;;;;;;;11.30;3.00;;;-17.10;78.50;;;;;;5017059;28;20029;-83
2024/01/13 01:15:08;;;;;;;5.97;3.53;;;-17.10;78.70;;;;;;5034270;28;20251;-83
2024/01/13 01:17:33;;;;;;;3.90;1.88;;;-17.10;78.70;;;;;;5034483;28;20410;-83
2024/01/13 01:19:59;;;;;;;3.17;2.30;;;-17.10;79.00;;;;;;5035318;28;20565;-83
2024/01/13 01:22:25;;;;;;;5.10;3.23;;;-17.10;79.70;;;;;;5018797;28;20079;-85
2024/01/13 01:24:51;;;;;;;9.70;3.23;;;-17.10;79.30;;;;;;5056236;28;20318;-83
2024/01/13 01:27:17;;;;;;;5.30;2.97;;;-17.10;79.10;;;;;;5034923;28;20309;-85
2024/01/13 01:29:42;;;;;;;10.03;4.17;;;-17.20;78.90;;;;;;5032940;28;20060;-84
2024/01/13 01:32:08;;;;;;;4.70;3.47;;;-17.20;79.20;;;;;;5035381;28;20021;-86
2024/01/13 01:34:34;;;;;;;4.47;2.37;;;-17.20;78.90;;;;;;5021044;28;20082;-85
2024/01/13 01:37:00;;;;;;;7.20;3.37;;;-17.20;79.00;;;;;;5030005;28;20018;-84
2024/01/13 01:39:26;;;;;;;10.27;5.23;;;-17.20;78.50;;;;;;5037737;28;20668;-82
2024/01/13 01:41:52;;;;;;;7.50;2.88;;;-17.20;78.40;;;;;;5028749;28;20398;-82
2024/01/13 01:44:18;;;;;;;4.97;3.10;;;-17.30;78.30;;;;;;5036806;28;20144;-84
2024/01/13 01:46:46;;;;;;;8.68;4.60;;;-17.30;78.30;;;;;;5047512;28;20346;-83
2024/01/13 01:49:14;;;;;;;6.45;4.05;;;-17.30;78.70;;;;;;5050866;28;20075;-84
2024/01/13 01:51:42;;;;;;;10.57;5.43;;;-17.30;78.50;;;;;;5032171;28;20041;-83
2024/01/13 01:54:08;;;;;;;6.82;3.08;;;-17.30;78.10;;;;;;5037336;28;20102;-84
2024/01/13 01:56:35;;;;;;;4.95;3.42;;;-17.30;78.30;;;;;;5037181;28;20021;-82
2024/01/13 01:59:01;;;;;;;;;;;-17.30;78.70;;;;;;5035052;28;20433;-83
2024/01/13 02:01:29;;;;;;;;;;;-17.30;78.20;;;;;;5017918;28;20286;-83
2024/01/13 02:03:55;;;;;;;7.20;4.25;;;-17.30;78.20;;;;;;5037454;28;19995;-83
2024/01/13 02:06:21;;;;;;;8.35;4.05;;;-17.40;77.70;;;;;;5021594;28;20022;-83
2024/01/13 02:08:47;;;;;;;17.85;4.95;;;-17.40;77.70;;;;;;5042043;28;20125;-84
2024/01/13 02:11:13;;;;;;;14.25;5.32;;;-17.30;77.90;;;;;;5039004;28;20013;-85
2024/01/13 02:13:40;;;;;;;6.72;2.33;;;-17.40;78.10;;;;;;5016878;28;20243;-83
2024/01/13 02:16:10;;;;;;;7.95;4.00;;;-17.30;78.30;;;;;;5033103;28;20025;-83
2024/01/13 02:18:36;;;;;;;5.78;4.05;;;-17.30;78.50;;;;;;5033256;28;20445;-82
2024/01/13 02:21:02;;;;;;;8.55;5.32;;;-17.40;78.60;;;;;;5031950;28;20021;-82
2024/01/13 02:23:28;;;;;;;13.17;4.57;;;-17.30;78.60;;;;;;5015657;28;20554;-82
2024/01/13 02:25:53;;;;;;;13.27;3.37;;;-17.30;78.30;;;;;;5015646;28;20332;-82
2024/01/13 02:28:19;;;;;;;7.20;3.33;;;-17.30;78.20;;;;;;5033271;28;20029;-82
2024/01/13 02:30:45;;;;;;;5.37;2.97;;;-17.30;78.20;;;;;;5027533;28;20293;-83
2024/01/13 02:33:11;;;;;;;7.65;4.28;;;-17.30;78.20;;;;;;5031970;28;20017;-81
2024/01/13 02:35:37;;;;;;;6.37;3.83;;;-17.30;78.40;;;;;;5032883;28;20024;-82
2024/01/13 02:38:03;;;;;;;5.63;2.50;;;-17.30;78.50;;;;;;5015132;28;20021;-82
2024/01/13 02:40:29;;;;;;;6.43;3.25;;;-17.30;78.50;;;;;;5033029;28;20329;-82
2024/01/13 02:42:54;;;;;;;4.70;3.17;;;-17.40;78.50;;;;;;5032760;28;20057;-80
2024/01/13 02:45:20;;;;;;;3.50;2.57;;;-17.40;78.60;;;;;;5015390;28;20038;-81
2024/01/13 02:47:55;;;;;;;11.43;4.28;;;-17.40;79.00;;;;;;5014881;28;20271;-82
2024/01/13 02:50:21;;;;;;;4.85;2.83;;;-17.40;79.40;;;;;;5020105;28;20037;-82
2024/01/13 02:52:47;;;;;;;16.52;3.63;;;-17.40;79.80;;;;;;5046778;28;20378;-81
2024/01/13 02:55:13;;;;;;;8.57;4.90;;;-17.40;79.80;;;;;;5033403;28;20039;-83
2024/01/13 02:57:39;;;;;;;4.95;2.45;;;-17.40;79.80;;;;;;5033620;28;20018;-81
2024/01/13 03:00:05;;;;;;;6.40;3.65;;;-17.40;79.90;;;;;;5033904;28;20025;-83
2024/01/13 03:02:31;;;;;;;5.90;2.58;;;-17.40;79.90;;;;;;5036179;28;20030;-87
2024/01/13 03:04:57;;;;;;;6.38;3.42;;;-17.40;79.90;;;;;;5023457;28;20120;-81
2024/01/13 03:07:26;;;;;;;9.03;3.73;;;-17.40;80.10;;;;;;5018466;28;20052;-82
2024/01/13 03:09:51;;;;;;;4.25;2.63;;;-17.40;80.20;;;;;;5014668;28;20443;-81
2024/01/13 03:12:17;;;;;;;6.68;4.75;;;-17.40;80.20;;;;;;5031953;28;20056;-81
2024/01/13 03:14:43;;;;;;;7.53;4.23;;;-17.40;80.50;;;;;;5032431;28;20018;-82
2024/01/13 03:17:09;;;;;;;6.40;3.47;;;-17.40;80.20;;;;;;5032753;28;20079;-83
2024/01/13 03:19:35;;;;;;;4.87;2.27;;;-17.40;80.00;;;;;;5033299;28;20786;-81
2024/01/13 03:22:01;;;;;;;6.80;3.30;;;-17.40;79.80;;;;;;5034268;28;20026;-83
2024/01/13 03:24:26;;;;;;;11.20;2.90;;;-17.40;79.90;;;;;;5009492;28;20037;-82
2024/01/13 03:26:52;;;;;;;7.40;4.57;;;-17.40;80.10;;;;;;5040241;28;20259;-82
2024/01/13 03:29:18;;;;;;;4.60;2.67;;;-17.40;80.40;;;;;;5021328;28;20032;-82
2024/01/13 03:31:44;;;;;;;11.90;4.33;;;-17.40;80.60;;;;;;5016111;28;20028;-82
2024/01/13 03:34:10;;;;;;;7.53;3.78;;;-17.50;80.10;;;;;;5033175;28;20029;-82
2024/01/13 03:36:36;;;;;;;8.43;3.47;;;-17.40;80.20;;;;;;5032558;28;20471;-83
2024/01/13 03:39:02;;;;;;;5.45;3.10;;;-17.40;80.40;;;;;;5033252;28;20025;-83
2024/01/13 03:41:29;;;;;;;4.32;2.13;;;-17.40;80.40;;;;;;5015632;28;20036;-82
2024/01/13 03:43:57;;;;;;;11.20;4.80;;;-17.40;80.40;;;;;;5015523;28;20450;-83
2024/01/13 03:46:23;;;;;;;8.65;5.00;;;-17.40;80.60;;;;;;5032231;28;20026;-82
2024/01/13 03:48:49;;;;;;;7.80;4.50;;;-17.40;80.90;;;;;;5032721;28;20035;-82
2024/01/13 03:51:18;;;;;;;9.27;4.72;;;-17.40;80.80;;;;;;5036906;28;20101;-84
2024/01/13 03:53:45;;;;;;;13.93;6.40;;;-17.50;80.80;;;;;;5040337;28;20025;-82
2024/01/13 03:56:10;;;;;;;5.93;3.15;;;-17.50;80.60;;;;;;5021459;28;20024;-84
2024/01/13 03:58:37;;;;;;;6.17;3.50;;;-17.50;80.80;;;;;;5033757;28;20097;-82
2024/01/13 04:01:03;;;;;;;6.85;3.63;;;-17.50;80.90;;;;;;5016038;28;20482;-82
2024/01/13 04:03:29;;;;;;;8.40;5.40;;;-17.50;81.00;;;;;;5034776;28;20041;-84
2024/01/13 04:05:56;;;;;;;6.87;4.23;;;-17.50;81.00;;;;;;5037970;28;20076;-82
2024/01/13 04:08:22;;;;;;;6.72;3.05;;;-17.50;81.10;;;;;;5050959;28;20263;-82
2024/01/13 04:10:48;;;;;;;4.53;3.10;;;-17.50;81.10;;;;;;5054601;28;20029;-82
2024/01/13 04:13:14;;;;;;;8.93;3.70;;;-17.60;81.10;;;;;;5034921;28;20018;-82
2024/01/13 04:15:40;;;;;;;7.40;4.35;;;-17.60;81.10;;;;;;5033285;28;20312;-82
2024/01/13 04:18:06;;;;;;;6.18;3.63;;;-17.60;81.50;;;;;;5032418;28;20022;-83
2024/01/13 04:20:32;;;;;;;9.65;5.07;;;-17.60;82.00;;;;;;5017174;28;20034;-82
2024/01/13 04:22:58;;;;;;;10.13;3.83;;;-17.60;82.40;;;;;;5038596;28;20097;-82
2024/01/13 04:25:24;;;;;;;2.45;1.90;;;-17.60;82.20;;;;;;5021335;28;20281;-83
2024/01/13 04:27:52;;;;;;;9.03;5.73;;;-17.60;82.40;;;;;;5018250;28;20089;-83
2024/01/13 04:30:18;;;;;;;15.40;6.03;;;-17.60;82.70;;;;;;5036707;28;20262;-83
2024/01/13 04:32:44;;;;;;;9.32;5.22;;;-17.60;83.30;;;;;;5033219;28;20013;-82
2024/01/13 04:35:11;;;;;;;4.05;3.60;;;-17.60;83.50;;;;;;5032603;28;20036;-82
2024/01/13 04:37:38;;;;;;;9.98;5.93;;;-17.60;83.70;;;;;;5013402;28;20068;-83
2024/01/13 04:40:04;;;;;;;9.88;4.18;;;-17.60;83.50;;;;;;5032544;28;20089;-81
2024/01/13 04:42:31;;;;;;;5.82;4.18;;;-17.60;83.60;;;;;;5031700;28;20160;-82
2024/01/13 04:44:57;;;;;;;4.07;1.80;;;-17.60;84.50;;;;;;5032100;28;20532;-82
2024/01/13 04:47:24;;;;;;;5.03;3.00;;;-17.60;84.20;;;;;;5032096;28;20075;-81
2024/01/13 04:49:50;;;;;;;28.08;5.38;;;-17.70;84.30;;;;;;5031642;28;20421;-81
2024/01/13 04:52:16;;;;;;;6.27;3.30;;;-17.70;84.60;;;;;;5028758;28;20057;-81
2024/01/13 04:54:42;;;;;;;10.47;4.47;;;-17.70;84.70;;;;;;5034296;28;20320;-80
2024/01/13 04:57:08;;;;;;;12.05;2.88;;;-17.70;84.90;;;;;;5037073;28;20105;-81
2024/01/13 04:59:34;;;;;;;13.70;4.67;;;-17.70;85.00;;;;;;5016946;28;20052;-81
2024/01/13 05:02:00;;;;;;;9.60;4.83;;;-17.70;85.20;;;;;;5035733;28;20033;-82
2024/01/13 05:04:26;;;;;;;8.93;4.28;;;-17.70;85.30;;;;;;5035200;28;20317;-80
2024/01/13 05:06:52;;;;;;;10.68;5.93;;;-17.80;85.60;;;;;;5034785;28;20029;-82
2024/01/13 05:09:18;;;;;;;6.80;5.03;;;-17.80;85.80;;;;;;5032094;28;20021;-81
2024/01/13 05:11:44;;;;;;;8.88;4.72;;;-17.80;85.80;;;;;;5026342;28;20098;-81
2024/01/13 05:14:10;;;;;;;11.50;4.00;;;-17.90;85.90;;;;;;5019019;28;20041;-81
2024/01/13 05:16:35;;;;;;;10.07;4.27;;;-17.80;86.00;;;;;;5034803;28;20029;-82
2024/01/13 05:19:02;;;;;;;2.37;2.17;;;-17.90;86.00;;;;;;5016766;28;20625;-81
2024/01/13 05:21:28;;;;;;;4.70;4.05;;;-17.90;86.00;;;;;;5034471;28;20021;-82
2024/01/13 05:23:54;;;;;;;6.53;2.50;;;-18.00;86.10;;;;;;5030720;28;20037;-82
2024/01/13 05:26:20;;;;;;;13.23;5.50;;;-18.00;86.20;;;;;;5034545;28;20055;-84
2024/01/13 05:28:45;;;;;;;8.00;4.03;;;-18.00;86.30;;;;;;5034254;28;20390;-81
2024/01/13 05:31:11;;;;;;;10.60;4.00;;;-18.10;86.50;;;;;;5035259;28;20271;-82
2024/01/13 05:33:37;;;;;;;10.37;5.80;;;-18.10;86.60;;;;;;5043631;28;20289;-81
2024/01/13 05:36:03;;;;;;;5.68;3.47;;;-18.10;86.70;;;;;;5036121;28;20017;-81
2024/01/13 05:38:29;;;;;;;9.27;5.30;;;-18.10;86.80;;;;;;5035546;28;20045;-80
2024/01/13 05:40:55;;;;;;;7.33;3.77;;;-18.10;86.80;;;;;;5032507;28;20022;-81
2024/01/13 05:43:22;;;;;;;5.15;3.58;;;-18.10;86.90;;;;;;5039445;28;20494;-81
2024/01/13 05:45:47;;;;;;;;;;;-18.20;87.00;;;;;;5040398;28;20036;-81
2024/01/13 05:48:13;;;;;;;12.35;5.18;;;-18.20;87.00;;;;;;5045879;28;19905;-81
2024/01/13 05:50:39;;;;;;;6.82;2.63;;;-18.20;86.80;;;;;;5035187;28;20049;-80
2024/01/13 05:53:05;;;;;;;4.30;3.90;;;-18.20;86.80;;;;;;5021406;28;20056;-83
2024/01/13 05:55:30;;;;;;;7.93;3.50;;;-18.30;86.90;;;;;;5034835;28;20030;-81
2024/01/13 05:57:56;;;;;;;12.03;6.17;;;-18.30;87.10;;;;;;5033040;28;20033;-80
2024/01/13 06:00:22;;;;;;;2.43;2.00;;;-18.30;87.30;;;;;;5026400;28;20084;-81
2024/01/13 06:02:48;;;;;;;10.27;4.00;;;-18.30;87.60;;;;;;5034219;28;20338;-84
2024/01/13 06:05:14;;;;;;;12.87;6.17;;;-18.30;88.50;;;;;;5022430;28;20652;-83
2024/01/13 06:07:40;;;;;;;8.63;3.92;;;-18.30;87.90;;;;;;5033687;28;20486;-84
2024/01/13 06:10:07;;;;;;;8.10;4.20;;;-18.30;87.90;;;;;;5032042;28;20391;-81
2024/01/13 06:12:33;;;;;;;8.68;5.85;;;-18.30;87.90;;;;;;5030101;28;20093;-84
2024/01/13 06:14:59;;;;;;;10.27;5.60;;;-18.30;87.70;;;;;;5034186;28;20029;-82
2024/01/13 06:17:24;;;;;;;14.20;4.67;;;-18.30;87.70;;;;;;5033524;28;20033;-83
2024/01/13 06:19:50;;;;;;;5.50;3.23;;;-18.30;87.60;;;;;;5034024;28;20574;-81
2024/01/13 06:22:16;;;;;;;2.33;2.13;;;-18.30;87.40;;;;;;5032765;28;20282;-82
2024/01/13 06:24:42;;;;;;;9.85;4.07;;;-18.30;87.20;;;;;;5031356;28;20298;-82
2024/01/13 06:27:08;;;;;;;8.25;4.97;;;-18.30;87.10;;;;;;5033523;28;20067;-82
2024/01/13 06:29:34;;;;;;;4.07;3.17;;;-18.30;87.10;;;;;;5030481;28;20026;-81
2024/01/13 06:32:00;;;;;;;5.45;4.97;;;-18.30;87.20;;;;;;5034695;28;20109;-81
2024/01/13 06:34:25;;;;;;;14.47;4.73;;;-18.40;87.20;;;;;;5034628;28;20041;-80
2024/01/13 06:36:51;;;;;;;19.57;8.40;;;-18.40;87.20;;;;;;5034669;28;20258;-82
2024/01/13 06:39:17;;;;;;;12.80;6.33;;;-18.40;87.70;;;;;;5034554;28;20296;-81
2024/01/13 06:41:43;;;;;;;14.43;5.93;;;-18.40;87.10;;;;;;5015831;28;20263;-83
2024/01/13 06:44:09;;;;;;;5.63;4.38;;;-18.50;87.10;;;;;;5034296;28;20542;-82
2024/01/13 06:46:35;;;;;;;22.65;8.38;;;-18.40;87.20;;;;;;5034250;28;20041;-82
2024/01/13 06:49:00;;;;;;;3.80;2.72;;;-18.50;87.20;;;;;;5034492;28;20025;-82
2024/01/13 06:51:26;;;;;;;12.17;6.63;;;-18.50;87.40;;;;;;5048553;28;20041;-83
2024/01/13 06:53:52;;;;;;;12.05;5.30;;;-18.40;87.50;;;;;;5043186;28;20037;-82
2024/01/13 06:56:18;;;;;;;19.85;9.85;;;-18.40;87.40;;;;;;5030254;28;20029;-84
2024/01/13 06:58:44;;;;;;;9.57;5.13;;;-18.40;87.40;;;;;;5033170;28;20418;-83
2024/01/13 07:01:14;;;;;;;7.80;4.83;;;-18.40;87.50;;;;;;5032404;28;20017;-84
2024/01/13 07:03:41;;;;;;;11.93;3.70;;;-18.40;87.50;;;;;;5033584;28;20262;-83
2024/01/13 07:06:07;;;;;;;12.82;8.70;;;-18.40;87.50;;;;;;5014783;28;20026;-83
2024/01/13 07:08:33;;;;;;;16.23;10.57;;;-18.30;87.50;;;;;;5018549;28;20029;-81
2024/01/13 07:10:58;;;;;;;9.63;5.03;;;-18.40;87.50;;;;;;5033078;28;20052;-81
2024/01/13 07:13:24;;;;;;;13.48;6.63;;;-18.40;87.50;;;;;;5032591;28;20059;-82
2024/01/13 07:15:50;;;;;;;18.27;8.70;;;-18.40;87.60;;;;;;5033086;28;20037;-83
2024/01/13 07:18:16;;;;;;;10.50;5.80;;;-18.40;87.70;;;;;;5033421;28;20021;-83
2024/01/13 07:20:42;;;;;;;13.00;6.30;;;-18.40;87.90;;;;;;5043864;28;20021;-82
2024/01/13 07:23:08;;;;;;;6.27;5.70;;;-18.30;88.10;;;;;;5042190;28;20029;-84
2024/01/13 07:25:34;;;;;;;14.00;6.47;;;-18.30;88.20;;;;;;5043887;28;20262;-83
2024/01/13 07:28:00;;;;;;;10.60;5.45;;;-18.20;88.20;;;;;;5040246;28;20021;-82
2024/01/13 07:30:25;;;;;;;22.35;9.30;;;-18.20;88.00;;;;;;5033647;28;20056;-83
2024/01/13 07:32:51;;;;;;;17.40;7.40;;;-18.20;87.70;;;;;;5031876;28;20022;-84
2024/01/13 07:35:17;;;;;;;10.93;5.40;;;-18.20;87.40;;;;;;5032849;28;20437;-83
2024/01/13 07:37:43;;;;;;;15.13;10.35;;;-18.20;87.10;;;;;;5031920;28;20044;-83
2024/01/13 07:40:09;;;;;;;19.23;10.87;;;-18.20;86.70;;;;;;5039185;28;20025;-82
2024/01/13 07:42:41;;;;;;;16.52;9.25;;;-18.20;86.60;;;;;;5033677;28;20026;-82
2024/01/13 07:45:08;;;;;;;11.23;7.20;;;-18.30;86.40;;;;;;5015033;28;20105;-83
2024/01/13 07:47:33;;;;;;;11.77;6.85;;;-18.30;86.50;;;;;;5032464;28;20439;-82
2024/01/13 07:49:59;;;;;;;8.45;5.78;;;-18.30;86.80;;;;;;5032476;28;20556;-83
2024/01/13 07:52:25;;;;;;;17.53;9.73;;;-18.20;87.60;;;;;;5030419;28;20068;-83
2024/01/13 07:54:51;;;;;;;11.57;6.87;;;-18.20;86.80;;;;;;5030719;28;20756;-82
2024/01/13 07:57:17;;;;;;;14.63;8.40;;;-18.20;86.60;;;;;;5032883;28;20744;-83
2024/01/13 07:59:43;;;;;;;14.05;9.50;;;-18.20;87.20;;;;;;5014705;28;20036;-82
2024/01/13 08:02:09;;;;;;;10.27;8.03;;;-18.10;86.70;;;;;;5014881;28;20117;-84
2024/01/13 08:04:34;;;;;;;25.52;10.77;;;-18.10;86.80;;;;;;5032065;28;20033;-82
2024/01/13 08:07:00;;;;;;;13.57;6.77;;;-18.00;86.80;;;;;;5014788;28;20034;-82
2024/01/13 08:09:26;;;;;;;37.05;18.58;;;-17.90;86.90;;;;;;5032023;28;20383;-83
2024/01/13 08:11:52;;;;;;;26.58;13.95;;;-17.90;86.80;;;;;;5031745;28;20056;-83
2024/01/13 08:14:18;;;;;;;35.63;18.43;;;-17.80;86.80;;;;;;5013899;28;20061;-82
2024/01/13 08:16:44;;;;;;;8.33;6.97;;;-17.50;87.30;;;;;;5013942;28;20071;-82
2024/01/13 08:19:10;;;;;;;15.23;9.85;;;-17.20;88.30;;;;;;5028523;28;20022;-83
2024/01/13 08:21:36;;;;;;;23.27;12.77;;;-16.90;88.40;;;;;;5007314;28;20426;-83
2024/01/13 08:24:02;;;;;;;25.63;12.95;;;-16.60;88.00;;;;;;5024922;28;20041;-81
2024/01/13 08:26:30;;;;;;;23.67;13.83;;;-16.30;88.50;;;;;;5032077;28;20513;-83
2024/01/13 08:28:56;;;;;;;17.73;9.05;;;-15.90;88.80;;;;;;5032781;28;20446;-82
2024/01/13 08:31:22;;;;;;;15.20;5.10;;;-15.60;88.00;;;;;;5017375;28;20044;-83
2024/01/13 08:33:48;;;;;;;10.03;7.00;;;-15.30;87.10;;;;;;5040417;28;20041;-83
2024/01/13 08:36:14;;;;;;;12.27;6.47;;;-14.90;87.00;;;;;;5040291;28;20071;-83
2024/01/13 08:38:43;;;;;;;30.42;16.90;;;-14.60;85.50;;;;;;5047007;28;20524;-83
2024/01/13 08:41:09;;;;;;;42.92;18.40;;;-14.40;84.00;;;;;;5037722;28;20638;-83
2024/01/13 08:43:35;;;;;;;23.35;12.43;;;-14.10;84.40;;;;;;5039488;28;20028;-83
2024/01/13 08:46:00;;;;;;;20.35;10.75;;;-13.90;83.60;;;;;;5050078;28;20356;-82
2024/01/13 08:48:27;;;;;;;30.00;13.10;;;-13.70;83.30;;;;;;5051561;28;20018;-82
2024/01/13 08:50:53;;;;;;;53.72;20.90;;;-13.50;82.70;;;;;;5050525;28;20056;-82
2024/01/13 08:53:20;;;;;;;35.38;14.13;;;-13.40;82.00;;;;;;5029584;28;20034;-84
2024/01/13 08:55:46;;;;;;;54.85;24.85;;;-13.20;81.50;;;;;;5031584;28;20034;-84
2024/01/13 08:58:14;;;;;;;41.40;18.70;;;-13.10;80.60;;;;;;5036687;28;20087;-85
2024/01/13 09:00:40;;;;;;;38.88;15.32;;;-13.00;80.80;;;;;;5039501;28;20033;-84
2024/01/13 09:03:05;;;;;;;28.42;16.42;;;-12.90;79.60;;;;;;5039568;28;20030;-80
2024/01/13 09:05:31;;;;;;;30.58;15.85;;;-12.90;79.50;;;;;;5024990;28;20053;-86
2024/01/13 09:07:59;;;;;;;43.75;13.88;;;-12.80;80.00;;;;;;5033224;28;20017;-86
2024/01/13 09:10:25;;;;;;;14.45;8.25;;;-12.60;80.80;;;;;;5039354;28;20108;-82
2024/01/13 09:12:51;;;;;;;28.25;13.48;;;-12.50;81.00;;;;;;5018580;28;20033;-84
2024/01/13 09:15:17;;;;;;;45.45;18.80;;;-12.30;80.50;;;;;;5035797;28;20044;-84
2024/01/13 09:17:50;;;;;;;49.80;23.00;;;-12.20;80.00;;;;;;5036417;28;20021;-82
2024/01/13 09:20:16;;;;;;;32.28;15.15;;;-12.20;79.00;;;;;;5038387;28;20030;-82
2024/01/13 09:22:42;;;;;;;41.70;18.90;;;-12.10;78.10;;;;;;5027068;28;20024;-84
2024/01/13 09:25:08;;;;;;;28.70;12.93;;;-12.10;78.00;;;;;;5016227;28;20107;-83
2024/01/13 09:27:34;;;;;;;32.15;14.88;;;-12.00;78.30;;;;;;5036827;28;20413;-82
2024/01/13 09:30:00;;;;;;;33.33;17.08;;;-11.80;77.10;;;;;;5020389;28;20113;-83
2024/01/13 09:32:29;;;;;;;35.65;15.68;;;-11.70;76.30;;;;;;5036634;28;20025;-82
2024/01/13 09:34:55;;;;;;;27.63;14.40;;;-11.50;75.40;;;;;;5033774;28;20061;-83
2024/01/13 09:37:21;;;;;;;19.75;11.50;;;-11.50;73.40;;;;;;5034805;28;20056;-82
2024/01/13 09:39:47;;;;;;;38.45;15.73;;;-11.60;71.40;;;;;;5030258;28;20411;-80
2024/01/13 09:42:24;;;;;;;15.57;9.65;;;-11.70;70.90;;;;;;5033844;28;20018;-81
2024/01/13 09:44:50;;;;;;;26.73;13.50;;;-11.90;71.00;;;;;;5017439;28;20030;-77
2024/01/13 09:47:16;;;;;;;31.33;13.63;;;-12.30;70.40;;;;;;5016265;28;20112;-78
2024/01/13 09:49:41;;;;;;;33.55;15.02;;;-12.50;70.40;;;;;;5033775;28;20522;-77
2024/01/13 09:52:07;;;;;;;17.77;9.02;;;-12.90;70.60;;;;;;5033492;28;20407;-78
2024/01/13 09:54:33;;;;;;;23.42;11.93;;;-13.30;71.10;;;;;;5032326;28;20038;-77
2024/01/13 09:56:59;;;;;;;17.85;7.28;;;-13.60;71.70;;;;;;5032435;28;20017;-78
2024/01/13 09:59:28;;;;;;;26.55;13.23;;;-13.90;72.30;;;;;;5033241;28;20391;-76
2024/01/13 10:01:54;;;;;;;13.93;8.43;;;-14.10;72.90;;;;;;5033412;28;20013;-78
2024/01/13 10:04:20;;;;;;;4.28;3.80;;;-14.20;73.70;;;;;;5033392;28;20036;-80
2024/01/13 10:06:48;;;;;;;14.90;7.20;;;-14.30;74.30;;;;;;5033804;28;20017;-82
2024/01/13 10:09:14;;;;;;;26.63;10.23;;;-14.40;74.70;;;;;;5034937;28;20014;-81
2024/01/13 10:11:40;;;;;;;22.80;11.40;;;-14.40;75.20;;;;;;5017026;28;20078;-79
2024/01/13 10:14:08;;;;;;;10.83;7.23;;;-14.50;75.40;;;;;;5032076;28;20120;-82
2024/01/13 10:16:35;;;;;;;21.02;8.25;;;-14.40;76.10;;;;;;5034843;28;20032;-80
2024/01/13 10:19:07;;;;;;;13.80;8.73;;;-14.10;76.90;;;;;;5036579;28;20072;-80
2024/01/13 10:21:34;;;;;;;10.23;6.53;;;-13.60;77.70;;;;;;5017662;28;20069;-81
2024/01/13 10:24:03;;;;;;;;;;;-13.10;78.30;;;;;;5016294;28;20548;-81
2024/01/13 10:26:30;;;;;;;22.35;8.27;;;-12.50;78.50;;;;;;5033257;28;19909;-82
2024/01/13 10:28:57;;;;;;;22.23;13.13;;;-11.90;77.40;;;;;;5032478;28;20032;-82
2024/01/13 10:31:23;;;;;;;17.13;7.53;;;-11.50;73.90;;;;;;5015351;28;20052;-79
2024/01/13 10:33:50;;;;;;;20.38;8.77;;;-11.20;73.60;;;;;;5032823;28;20120;-79
2024/01/13 10:36:24;;;;;;;26.83;12.50;;;-10.90;73.40;;;;;;5015661;28;20025;-79
2024/01/13 10:38:57;;;;;;;18.20;11.13;;;-10.70;73.00;;;;;;5015241;28;20029;-79
2024/01/13 10:41:28;;;;;;;12.27;5.05;;;-10.80;71.10;;;;;;5033087;28;20024;-79
2024/01/13 10:43:56;;;;;;;23.33;11.63;;;-11.10;69.40;;;;;;5031968;28;20026;-81
2024/01/13 10:46:26;;;;;;;10.05;5.57;;;-11.40;69.90;;;;;;5033010;28;20025;-81
2024/01/13 10:48:59;;;;;;;17.58;6.50;;;-11.60;69.90;;;;;;5031344;28;20505;-81
2024/01/13 10:51:24;;;;;;;23.25;11.57;;;-11.90;70.20;;;;;;5030935;28;20521;-81
2024/01/13 10:53:54;;;;;;;14.45;9.18;;;-12.20;70.60;;;;;;5031995;28;20116;-79
2024/01/13 10:56:20;;;;;;;28.85;9.95;;;-12.50;71.00;;;;;;5032482;28;20486;-79
2024/01/13 10:58:47;;;;;;;16.02;5.50;;;-12.70;71.40;;;;;;5032380;28;20043;-79
2024/01/13 11:01:13;;;;;;;18.77;8.13;;;-12.80;71.40;;;;;;5013397;28;20390;-77
2024/01/13 11:03:41;;;;;;;21.90;9.90;;;-13.00;71.60;;;;;;5032443;28;20036;-78
2024/01/13 11:06:07;;;;;;;18.98;8.82;;;-13.20;71.80;;;;;;5032421;28;20356;-79
2024/01/13 11:08:34;;;;;;;7.20;5.25;;;-13.30;72.20;;;;;;5014505;28;20550;-80
2024/01/13 11:11:02;;;;;;;15.98;8.15;;;-13.40;72.70;;;;;;5032601;28;20029;-81
2024/01/13 11:13:33;;;;;;;18.17;7.43;;;-13.50;72.80;;;;;;5030510;28;20493;-80
2024/01/13 11:16:09;;;;;;;15.40;9.32;;;-13.60;73.10;;;;;;5014785;28;20018;-79
2024/01/13 11:18:46;;;;;;;13.50;7.65;;;-13.80;72.90;;;;;;5031486;28;20399;-77
2024/01/13 11:21:12;;;;;;;9.88;7.47;;;-14.00;72.50;;;;;;5014507;28;20028;-80
2024/01/13 11:23:58;;;;;;;13.02;7.68;;;-14.20;73.00;;;;;;5032201;28;20033;-80
2024/01/13 11:26:42;;;;;;;14.60;9.30;;;-14.30;73.40;;;;;;5032381;28;20030;-79
2024/01/13 11:29:26;;;;;;;11.32;7.68;;;-14.40;73.50;;;;;;5029247;28;20069;-79
2024/01/13 11:32:12;;;;;;;20.35;8.45;;;-14.50;73.80;;;;;;5032470;28;20105;-80
2024/01/13 11:34:39;;;;;;;9.80;6.97;;;-14.60;74.50;;;;;;5028324;28;20083;-79
2024/01/13 11:37:10;;;;;;;24.33;8.10;;;-14.60;74.80;;;;;;5015269;28;20079;-79
2024/01/13 11:39:36;;;;;;;17.98;7.95;;;-14.60;75.70;;;;;;5014153;28;20065;-79
2024/01/13 11:42:03;;;;;;;8.13;5.57;;;-14.70;76.10;;;;;;5031296;28;20155;-80
2024/01/13 11:44:37;;;;;;;10.45;5.22;;;-14.70;76.50;;;;;;5032523;28;20026;-80
2024/01/13 11:47:08;;;;;;;13.40;8.15;;;-14.70;77.20;;;;;;5032086;28;20355;-79
2024/01/13 11:49:43;;;;;;;12.95;7.38;;;-14.70;77.40;;;;;;5033935;28;20041;-81
2024/01/13 11:52:09;;;;;;;11.43;5.68;;;-14.70;77.50;;;;;;5030963;28;20041;-79
2024/01/13 11:54:37;;;;;;;17.15;10.70;;;-14.70;77.80;;;;;;5031773;28;20067;-79
2024/01/13 11:57:08;;;;;;;13.57;7.90;;;-14.70;78.00;;;;;;5031058;28;20030;-87
2024/01/13 11:59:34;;;;;;;22.27;10.02;;;-14.70;78.00;;;;;;5017737;28;20022;-80
2024/01/13 12:02:01;;;;;;;6.53;4.53;;;-14.70;78.10;;;;;;5031824;28;20034;-80
2024/01/13 12:04:31;;;;;;;15.88;7.18;;;-14.70;78.40;;;;;;5032260;28;20025;-81
2024/01/13 12:06:57;;;;;;;11.75;7.03;;;-14.70;79.10;;;;;;5029701;28;20363;-80
2024/01/13 12:09:26;;;;;;;19.80;9.38;;;-14.70;79.10;;;;;;5035032;28;20022;-80
2024/01/13 12:11:56;;;;;;;14.82;8.27;;;-14.60;79.30;;;;;;5018328;28;20026;-81
2024/01/13 12:14:27;;;;;;;13.95;5.32;;;-14.60;79.20;;;;;;5024912;28;20493;-81
2024/01/13 12:16:54;;;;;;;12.50;7.50;;;-14.70;79.30;;;;;;5055475;28;20140;-81
2024/01/13 12:19:21;;;;;;;13.90;6.18;;;-14.60;79.60;;;;;;5004247;28;20037;-80
2024/01/13 12:21:47;;;;;;;10.18;7.72;;;-14.60;79.70;;;;;;5035372;28;20099;-79
2024/01/13 12:24:14;;;;;;;19.40;9.43;;;-14.60;79.80;;;;;;5036719;28;20029;-87
2024/01/13 12:26:41;;;;;;;;;;;-14.60;79.90;;;;;;5039671;28;20112;-80
2024/01/13 12:29:08;;;;;;;21.77;10.30;;;-14.60;79.70;;;;;;5039846;28;19909;-79